Time;durP1;ratioP1;P1;durP2;ratioP2;P2;SDS_P1;SDS_P2;PMS_P1;PMS_P2;Temp;Humidity;BMP_temperature;BMP_pressure;BME280_temperature;BME280_humidity;BME280_pressure;Samples;Min_cycle;Max_cycle;Signal;HPM_P1;HPM_P2
2022/04/14 00:00:23;;;;;;;20.02;10.00;;;16.00;72.70;;;;;;2374599;56;21532;-75
2022/04/14 00:02:51;;;;;;;16.08;9.18;;;16.00;72.90;;;;;;2375008;56;21033;-74
2022/04/14 00:05:18;;;;;;;13.73;8.32;;;15.90;72.70;;;;;;2374286;56;21038;-75
2022/04/14 00:07:46;;;;;;;14.82;8.15;;;16.00;72.90;;;;;;2374597;56;21047;-74
2022/04/14 00:10:14;;;;;;;12.98;8.05;;;16.00;72.70;;;;;;2374508;56;21066;-73
2022/04/14 00:12:41;;;;;;;16.83;8.23;;;16.00;72.70;;;;;;2374824;56;21537;-74
2022/04/14 00:15:11;;;;;;;14.20;7.87;;;15.90;72.70;;;;;;2374595;56;21035;-74
2022/04/14 00:17:38;;;;;;;15.45;8.18;;;15.90;72.80;;;;;;2374408;56;21051;-72
2022/04/14 00:20:09;;;;;;;14.13;7.80;;;15.90;72.60;;;;;;2374434;56;21043;-75
2022/04/14 00:22:36;;;;;;;16.10;8.32;;;15.90;72.70;;;;;;2374782;56;22177;-75
2022/04/14 00:25:04;;;;;;;16.20;8.55;;;15.90;72.80;;;;;;2628225;52;21122;-75
2022/04/14 00:27:32;;;;;;;15.18;8.07;;;15.90;72.80;;;;;;2628126;52;21059;-75
2022/04/14 00:29:59;;;;;;;28.50;8.52;;;15.90;72.80;;;;;;2374947;56;21054;-75
2022/04/14 00:32:27;;;;;;;13.77;8.35;;;15.90;72.70;;;;;;2374848;56;21047;-75
2022/04/14 00:34:54;;;;;;;12.40;7.65;;;15.90;72.70;;;;;;2373624;56;21039;-73
2022/04/14 00:37:21;;;;;;;16.42;8.43;;;15.90;72.70;;;;;;2626827;52;21125;-73
2022/04/14 00:39:50;;;;;;;15.02;8.15;;;15.90;72.60;;;;;;2373886;56;21110;-75
2022/04/14 00:42:18;;;;;;;19.02;9.38;;;15.90;72.60;;;;;;2373935;56;21051;-73
2022/04/14 00:44:45;;;;;;;17.40;8.23;;;15.80;72.60;;;;;;2626931;52;21454;-75
2022/04/14 00:47:14;;;;;;;17.65;9.45;;;15.80;72.60;;;;;;2626719;52;21047;-73
2022/04/14 00:49:42;;;;;;;16.73;8.65;;;15.80;72.50;;;;;;2373531;56;21035;-73
2022/04/14 00:52:11;;;;;;;21.65;9.93;;;15.80;72.50;;;;;;2373434;56;21142;-74
2022/04/14 00:54:38;;;;;;;19.05;9.55;;;15.80;72.50;;;;;;2373373;56;21301;-75
2022/04/14 00:57:06;;;;;;;20.17;10.75;;;15.80;72.50;;;;;;2373497;56;21110;-74
2022/04/14 00:59:34;;;;;;;22.65;11.40;;;15.80;72.50;;;;;;2373877;56;21030;-74
2022/04/14 01:02:03;;;;;;;23.60;11.65;;;15.80;72.60;;;;;;2627233;52;21057;-74
2022/04/14 01:04:31;;;;;;;19.30;9.73;;;15.80;73.40;;;;;;2373417;56;21035;-74
2022/04/14 01:06:59;;;;;;;22.02;10.93;;;15.80;72.70;;;;;;2373493;56;21095;-74
2022/04/14 01:09:29;;;;;;;18.45;9.43;;;15.80;73.30;;;;;;2373824;56;21046;-73
2022/04/14 01:11:57;;;;;;;19.17;10.70;;;15.80;72.70;;;;;;2373029;56;21103;-74
2022/04/14 01:14:28;;;;;;;22.45;10.85;;;15.80;72.70;;;;;;2374091;56;21546;-74
2022/04/14 01:16:56;;;;;;;20.62;11.50;;;15.70;72.60;;;;;;2373222;56;21043;-74
2022/04/14 01:19:24;;;;;;;20.73;11.12;;;15.80;72.50;;;;;;2373982;56;21085;-74
2022/04/14 01:22:00;;;;;;;22.00;11.10;;;15.80;72.60;;;;;;2373970;56;21597;-74
2022/04/14 01:24:28;;;;;;;19.77;10.48;;;15.70;72.70;;;;;;2373617;56;21038;-75
2022/04/14 01:26:56;;;;;;;20.52;9.80;;;15.70;72.90;;;;;;2372010;56;21078;-75
2022/04/14 01:29:24;;;;;;;17.65;8.90;;;15.70;73.10;;;;;;2374107;56;21573;-74
2022/04/14 01:31:53;;;;;;;20.23;9.82;;;15.70;73.10;;;;;;2627301;52;21560;-74
2022/04/14 01:34:20;;;;;;;19.25;10.35;;;15.70;73.20;;;;;;2373726;56;21118;-76
2022/04/14 01:36:48;;;;;;;21.83;11.18;;;15.60;73.00;;;;;;2372956;56;21043;-74
2022/04/14 01:39:15;;;;;;;25.02;10.82;;;15.60;73.10;;;;;;2373723;56;21127;-75
2022/04/14 01:41:44;;;;;;;20.75;10.10;;;15.60;73.40;;;;;;2373728;56;21047;-75
2022/04/14 01:44:12;;;;;;;19.02;9.98;;;15.60;73.50;;;;;;2373256;56;21123;-75
2022/04/14 01:46:41;;;;;;;21.92;10.90;;;15.60;73.50;;;;;;2372563;56;21122;-74
2022/04/14 01:49:08;;;;;;;17.92;9.93;;;15.60;73.40;;;;;;2372548;56;21047;-75
2022/04/14 01:51:37;;;;;;;23.98;10.05;;;15.60;73.40;;;;;;2374229;56;21050;-74
2022/04/14 01:54:05;;;;;;;20.65;9.63;;;15.60;73.40;;;;;;2374098;56;21105;-76
2022/04/14 01:56:33;;;;;;;24.37;10.40;;;15.60;73.50;;;;;;2373194;56;21063;-74
2022/04/14 01:59:00;;;;;;;24.02;11.57;;;15.60;73.50;;;;;;2372744;56;21070;-75
2022/04/14 02:01:28;;;;;;;17.55;9.82;;;15.60;73.50;;;;;;2626696;52;21031;-74
2022/04/14 02:03:57;;;;;;;20.67;11.80;;;15.50;73.40;;;;;;2374212;56;21023;-75
2022/04/14 02:06:24;;;;;;;23.73;12.10;;;15.50;73.50;;;;;;2373330;56;21035;-74
2022/04/14 02:08:51;;;;;;;22.40;11.65;;;15.50;73.60;;;;;;2373322;56;21046;-75
2022/04/14 02:11:19;;;;;;;21.80;12.50;;;15.50;73.70;;;;;;2373412;56;21063;-75
2022/04/14 02:13:46;;;;;;;24.58;13.27;;;15.40;73.80;;;;;;2373711;56;21036;-74
2022/04/14 02:16:14;;;;;;;33.70;15.95;;;15.50;74.00;;;;;;2372578;56;21043;-75
2022/04/14 02:18:43;;;;;;;23.90;12.37;;;15.40;74.20;;;;;;2373877;56;21039;-75
2022/04/14 02:21:10;;;;;;;38.63;15.93;;;15.40;74.20;;;;;;2372782;56;21655;-75
2022/04/14 02:23:37;;;;;;;33.58;16.37;;;15.50;74.30;;;;;;2373695;56;21113;-75
2022/04/14 02:26:05;;;;;;;39.17;18.08;;;15.50;74.20;;;;;;2372646;56;21023;-74
2022/04/14 02:28:32;;;;;;;34.42;17.75;;;15.40;74.20;;;;;;2373496;56;21117;-75
2022/04/14 02:31:00;;;;;;;41.35;18.33;;;15.40;73.80;;;;;;2373670;56;21126;-74
2022/04/14 02:33:27;;;;;;;39.15;19.45;;;15.40;74.10;;;;;;2373696;56;21181;-75
2022/04/14 02:35:54;;;;;;;38.33;20.05;;;15.40;74.10;;;;;;2373511;56;21126;-75
2022/04/14 02:38:22;;;;;;;45.67;22.67;;;15.40;74.20;;;;;;2373876;56;21561;-74
2022/04/14 02:40:49;;;;;;;42.00;22.37;;;15.40;74.30;;;;;;2374168;56;21116;-74
2022/04/14 02:43:16;;;;;;;45.75;21.65;;;15.40;74.40;;;;;;2373403;56;21035;-74
2022/04/14 02:45:43;;;;;;;41.53;20.95;;;15.30;74.40;;;;;;2373512;56;21755;-74
2022/04/14 02:48:10;;;;;;;40.83;21.15;;;15.30;74.40;;;;;;2373662;56;21546;-74
2022/04/14 02:50:38;;;;;;;45.67;23.15;;;15.30;74.40;;;;;;2373187;56;21078;-74
2022/04/14 02:53:05;;;;;;;43.17;21.92;;;15.30;74.50;;;;;;2373732;56;21134;-74
2022/04/14 02:55:33;;;;;;;46.25;21.23;;;15.30;74.40;;;;;;2373016;56;21106;-74
2022/04/14 02:58:00;;;;;;;52.00;21.05;;;15.30;74.50;;;;;;2373443;56;21122;-75
2022/04/14 03:00:27;;;;;;;42.65;22.15;;;15.30;75.00;;;;;;2373859;56;21027;-74
2022/04/14 03:02:55;;;;;;;36.60;20.80;;;15.30;74.40;;;;;;2373304;56;21118;-74
2022/04/14 03:05:22;;;;;;;43.13;21.33;;;15.20;74.30;;;;;;2373009;56;21596;-75
2022/04/14 03:07:49;;;;;;;38.75;19.42;;;15.20;74.30;;;;;;2373923;56;21030;-74
2022/04/14 03:10:16;;;;;;;44.75;21.83;;;15.20;74.50;;;;;;2373612;56;21051;-75
2022/04/14 03:12:46;;;;;;;44.97;22.37;;;15.20;74.30;;;;;;2373687;56;21050;-74
2022/04/14 03:15:14;;;;;;;41.55;21.98;;;15.20;74.30;;;;;;2374052;56;21106;-76
2022/04/14 03:17:42;;;;;;;48.17;22.98;;;15.20;74.10;;;;;;2372608;56;21202;-74
2022/04/14 03:20:11;;;;;;;33.53;18.45;;;15.20;74.10;;;;;;2373981;56;21063;-74
2022/04/14 03:22:39;;;;;;;41.28;20.08;;;15.20;74.10;;;;;;2626734;52;21069;-74
2022/04/14 03:25:09;;;;;;;37.92;19.70;;;15.20;74.00;;;;;;2373540;56;21526;-75
2022/04/14 03:27:37;;;;;;;42.72;20.67;;;15.20;73.90;;;;;;2626717;52;21168;-75
2022/04/14 03:32:44;;;;;;;40.35;23.08;;;15.10;73.70;;;;;;2309240;57;38816;-74
2022/04/14 03:35:12;;;;;;;42.92;21.23;;;14.70;76.50;;;;;;2347934;56;21089;-74
2022/04/14 03:37:40;;;;;;;50.53;23.45;;;14.90;75.70;;;;;;2389207;56;21659;-73
2022/04/14 03:40:09;;;;;;;38.75;20.90;;;15.00;74.90;;;;;;2389585;56;21038;-73
2022/04/14 03:42:36;;;;;;;48.70;22.87;;;15.00;74.50;;;;;;2389720;56;21050;-74
2022/04/14 03:45:05;;;;;;;47.53;23.10;;;15.10;74.40;;;;;;2389226;56;21054;-73
2022/04/14 03:47:32;;;;;;;45.12;22.13;;;15.00;74.10;;;;;;2389075;56;21026;-73
2022/04/14 03:49:59;;;;;;;49.70;23.02;;;15.00;74.20;;;;;;2388820;56;21109;-74
2022/04/14 03:52:27;;;;;;;54.80;24.77;;;15.00;74.40;;;;;;2388080;56;21134;-75
2022/04/14 03:54:54;;;;;;;48.33;23.48;;;15.00;74.60;;;;;;2389108;56;21146;-75
2022/04/14 03:57:21;;;;;;;50.03;23.33;;;14.90;74.50;;;;;;2388828;56;21050;-75
2022/04/14 03:59:49;;;;;;;58.20;25.48;;;15.00;74.60;;;;;;2389510;56;21125;-74
2022/04/14 04:02:16;;;;;;;52.03;22.65;;;14.90;74.60;;;;;;2646219;52;21138;-74
2022/04/14 04:04:43;;;;;;;47.47;23.05;;;14.90;74.50;;;;;;2389163;56;21819;-74
2022/04/14 04:07:10;;;;;;;48.83;22.73;;;14.90;74.70;;;;;;2388148;56;21082;-74
2022/04/14 04:09:38;;;;;;;45.05;23.73;;;14.90;74.80;;;;;;2388744;56;21664;-75
2022/04/14 04:12:08;;;;;;;54.03;24.37;;;14.90;75.00;;;;;;2389288;56;21030;-75
2022/04/14 04:14:35;;;;;;;60.00;25.98;;;14.90;75.10;;;;;;2389285;56;21161;-74
2022/04/14 04:17:04;;;;;;;58.45;24.20;;;14.90;75.10;;;;;;2389062;56;21050;-74
2022/04/14 04:19:32;;;;;;;61.37;26.83;;;14.90;75.00;;;;;;2388988;56;21054;-74
2022/04/14 04:21:59;;;;;;;48.50;23.05;;;14.90;75.00;;;;;;2389250;56;21022;-74
2022/04/14 04:24:27;;;;;;;50.80;23.65;;;14.90;75.20;;;;;;2389156;56;21022;-74
2022/04/14 04:26:54;;;;;;;47.88;22.15;;;14.90;75.00;;;;;;2388596;56;21038;-75
2022/04/14 04:29:21;;;;;;;68.22;25.40;;;14.90;75.00;;;;;;2389570;56;21038;-73
2022/04/14 04:31:48;;;;;;;49.10;24.40;;;14.90;75.00;;;;;;2389089;56;21548;-75
2022/04/14 04:34:17;;;;;;;59.53;26.33;;;14.90;75.10;;;;;;2645598;52;21541;-74
2022/04/14 04:36:44;;;;;;;50.42;23.05;;;14.90;75.20;;;;;;2389197;56;21054;-75
2022/04/14 04:39:11;;;;;;;55.10;24.77;;;14.90;75.40;;;;;;2388978;56;21038;-74
2022/04/14 04:41:38;;;;;;;52.92;24.10;;;14.90;75.40;;;;;;2389483;56;21030;-74
2022/04/14 04:44:06;;;;;;;57.58;24.05;;;14.90;75.50;;;;;;2388126;56;21601;-75
2022/04/14 04:46:34;;;;;;;50.67;23.42;;;14.90;75.50;;;;;;2387488;56;21114;-75
2022/04/14 04:49:01;;;;;;;65.78;25.35;;;14.90;75.70;;;;;;2644663;52;21086;-75
2022/04/14 04:51:28;;;;;;;45.83;22.67;;;14.90;75.80;;;;;;2644095;52;21075;-74
2022/04/14 04:53:56;;;;;;;61.80;25.60;;;14.90;75.60;;;;;;2387897;56;21121;-75
2022/04/14 04:56:23;;;;;;;49.50;22.77;;;14.90;75.70;;;;;;2387830;56;21035;-75
2022/04/14 04:58:51;;;;;;;48.63;23.87;;;14.90;75.70;;;;;;2388194;56;22168;-75
2022/04/14 05:01:18;;;;;;;55.00;26.10;;;15.00;75.10;;;;;;2388182;56;21022;-75
2022/04/14 05:03:45;;;;;;;50.55;24.83;;;14.90;75.50;;;;;;2644271;52;21092;-74
2022/04/14 05:06:12;;;;;;;50.55;22.62;;;15.00;75.40;;;;;;2387281;56;21525;-75
2022/04/14 05:08:40;;;;;;;47.75;24.35;;;15.00;75.60;;;;;;2387151;56;21137;-75
2022/04/14 05:11:07;;;;;;;62.58;26.30;;;14.90;75.60;;;;;;2388420;56;21042;-75
2022/04/14 05:13:34;;;;;;;65.60;25.70;;;15.00;75.50;;;;;;2386969;56;21058;-75
2022/04/14 05:16:02;;;;;;;56.05;23.10;;;15.00;76.60;;;;;;2387531;56;21027;-75
2022/04/14 05:18:29;;;;;;;56.15;23.23;;;15.00;75.50;;;;;;2387390;56;21085;-75
2022/04/14 05:20:56;;;;;;;61.08;26.87;;;15.00;75.70;;;;;;2388136;56;21588;-75
2022/04/14 05:23:24;;;;;;;64.82;27.13;;;15.00;75.90;;;;;;2644624;52;21548;-75
2022/04/14 05:25:51;;;;;;;45.10;22.50;;;15.00;75.60;;;;;;2387438;56;21532;-75
2022/04/14 05:28:18;;;;;;;51.47;24.95;;;15.00;75.80;;;;;;2387938;56;21680;-75
2022/04/14 05:30:45;;;;;;;66.10;25.62;;;15.10;76.20;;;;;;2387208;56;21568;-75
2022/04/14 05:33:14;;;;;;;52.35;22.13;;;15.10;75.90;;;;;;2644326;52;21029;-75
2022/04/14 05:35:44;;;;;;;65.50;26.55;;;15.10;75.60;;;;;;2387210;56;21118;-73
2022/04/14 05:38:11;;;;;;;62.33;25.02;;;15.10;75.60;;;;;;2388017;56;21103;-74
2022/04/14 05:40:41;;;;;;;68.37;26.60;;;15.10;75.20;;;;;;2388201;56;21034;-75
2022/04/14 05:43:13;;;;;;;58.70;26.05;;;15.10;75.50;;;;;;2387880;56;21692;-76
2022/04/14 05:45:44;;;;;;;58.25;24.55;;;15.20;76.00;;;;;;2387588;56;21109;-76
2022/04/14 05:48:13;;;;;;;48.65;23.60;;;15.20;75.90;;;;;;2388225;56;21038;-76
2022/04/14 05:50:40;;;;;;;50.72;25.20;;;15.10;76.10;;;;;;2387225;56;21137;-74
2022/04/14 05:53:08;;;;;;;52.00;24.73;;;15.20;75.80;;;;;;2387260;56;21102;-75
2022/04/14 05:55:35;;;;;;;67.95;26.83;;;15.20;75.80;;;;;;2387430;56;21585;-75
2022/04/14 05:58:03;;;;;;;59.67;25.60;;;15.20;75.60;;;;;;2387906;56;21042;-74
2022/04/14 06:00:30;;;;;;;50.38;23.98;;;15.20;75.20;;;;;;2387594;56;21654;-75
2022/04/14 06:02:59;;;;;;;51.37;25.25;;;15.20;75.50;;;;;;2387981;56;21046;-75
2022/04/14 06:05:29;;;;;;;57.85;25.02;;;15.30;75.00;;;;;;2387315;56;21110;-74
2022/04/14 06:07:56;;;;;;;64.22;29.40;;;15.20;74.90;;;;;;2388064;56;21086;-75
2022/04/14 06:10:24;;;;;;;77.15;30.65;;;15.30;75.50;;;;;;2387277;56;21098;-75
2022/04/14 06:12:54;;;;;;;57.97;26.15;;;15.30;75.10;;;;;;2387605;56;21077;-75
2022/04/14 06:15:22;;;;;;;53.55;26.60;;;15.30;75.40;;;;;;2387089;56;21125;-73
2022/04/14 06:17:50;;;;;;;71.75;29.70;;;15.40;75.90;;;;;;2388273;56;21034;-76
2022/04/14 06:20:17;;;;;;;61.65;28.25;;;15.30;75.40;;;;;;2387334;56;21039;-76
2022/04/14 06:22:46;;;;;;;60.97;29.70;;;15.30;75.50;;;;;;2385652;56;21046;-75
2022/04/14 06:25:16;;;;;;;51.17;25.98;;;15.40;75.80;;;;;;2387091;56;21113;-73
2022/04/14 06:27:44;;;;;;;53.97;26.23;;;15.40;75.50;;;;;;2387224;56;21042;-75
2022/04/14 06:30:14;;;;;;;53.72;28.23;;;15.40;75.20;;;;;;2643557;52;21019;-75
2022/04/14 06:32:41;;;;;;;55.15;27.58;;;15.40;75.20;;;;;;2386897;56;21027;-75
2022/04/14 06:35:13;;;;;;;56.85;27.60;;;15.50;75.40;;;;;;2643649;52;21498;-75
2022/04/14 06:37:41;;;;;;;56.30;27.70;;;15.50;75.70;;;;;;2387473;56;21082;-75
2022/04/14 06:40:10;;;;;;;58.58;29.25;;;15.50;75.70;;;;;;2387718;56;21023;-77
2022/04/14 06:42:38;;;;;;;53.13;26.95;;;15.50;75.90;;;;;;2386715;56;21524;-75
2022/04/14 06:45:08;;;;;;;59.42;28.65;;;15.50;75.60;;;;;;2386428;56;21055;-75
2022/04/14 06:47:35;;;;;;;50.25;26.17;;;15.50;76.00;;;;;;2386719;56;21031;-76
2022/04/14 06:50:03;;;;;;;57.03;28.98;;;15.60;76.10;;;;;;2387514;56;21093;-75
2022/04/14 06:52:30;;;;;;;55.65;27.40;;;15.70;76.50;;;;;;2387341;56;21125;-74
2022/04/14 06:54:58;;;;;;;53.35;26.17;;;15.70;76.10;;;;;;2387412;56;21560;-75
2022/04/14 06:57:25;;;;;;;50.40;25.40;;;15.70;76.80;;;;;;2643671;52;21035;-75
2022/04/14 06:59:52;;;;;;;45.90;23.77;;;15.80;76.00;;;;;;2387298;56;21066;-75
2022/04/14 07:02:20;;;;;;;46.95;25.05;;;15.80;75.50;;;;;;2387752;56;21525;-74
2022/04/14 07:04:47;;;;;;;49.80;25.48;;;15.90;75.50;;;;;;2387248;56;21117;-75
2022/04/14 07:07:14;;;;;;;49.10;24.87;;;15.90;75.70;;;;;;2387069;56;21597;-75
2022/04/14 07:09:41;;;;;;;43.25;24.05;;;15.90;75.60;;;;;;2643247;52;21109;-74
2022/04/14 07:12:10;;;;;;;42.40;23.30;;;15.90;76.60;;;;;;2386935;56;21074;-74
2022/04/14 07:14:39;;;;;;;35.50;20.77;;;15.90;75.90;;;;;;2387370;56;21054;-74
2022/04/14 07:17:07;;;;;;;37.97;21.65;;;15.90;75.30;;;;;;2386781;56;21089;-74
2022/04/14 07:19:34;;;;;;;44.45;23.85;;;16.00;75.20;;;;;;2642594;52;21110;-74
2022/04/14 07:22:02;;;;;;;36.35;20.33;;;16.00;74.90;;;;;;2387075;56;22031;-74
2022/04/14 07:24:29;;;;;;;41.60;22.33;;;16.00;75.00;;;;;;2386526;56;21177;-74
2022/04/14 07:26:56;;;;;;;32.35;18.77;;;16.00;74.70;;;;;;2386450;56;21042;-74
2022/04/14 07:29:24;;;;;;;40.20;22.27;;;16.00;74.40;;;;;;2386974;56;21647;-75
2022/04/14 07:31:52;;;;;;;39.55;21.55;;;16.00;74.50;;;;;;2644768;52;21620;-74
2022/04/14 07:34:19;;;;;;;30.85;18.87;;;16.10;73.50;;;;;;2644415;51;21043;-74
2022/04/14 07:36:46;;;;;;;39.00;20.75;;;16.10;72.60;;;;;;2387907;56;21038;-75
2022/04/14 07:39:14;;;;;;;34.40;20.42;;;16.10;73.80;;;;;;2388508;56;21655;-74
2022/04/14 07:41:41;;;;;;;33.75;20.00;;;16.00;73.60;;;;;;2387132;56;21026;-75
2022/04/14 07:44:08;;;;;;;34.97;20.42;;;16.00;73.70;;;;;;2388269;56;21034;-75
2022/04/14 07:46:38;;;;;;;33.95;19.85;;;16.00;74.00;;;;;;2387538;56;21568;-73
2022/04/14 07:49:05;;;;;;;39.70;20.95;;;16.10;73.50;;;;;;2388413;56;21113;-74
2022/04/14 07:51:33;;;;;;;41.03;25.12;;;16.10;73.60;;;;;;2388399;56;21023;-75
2022/04/14 07:54:00;;;;;;;36.05;21.85;;;16.10;73.70;;;;;;2388447;56;21596;-74
2022/04/14 07:56:27;;;;;;;33.97;21.40;;;16.10;73.50;;;;;;2388016;56;22129;-75
2022/04/14 07:58:55;;;;;;;35.30;21.60;;;16.20;73.10;;;;;;2387168;56;21121;-74
2022/04/14 08:01:22;;;;;;;39.42;22.83;;;16.20;73.40;;;;;;2388237;56;21774;-73
2022/04/14 08:03:50;;;;;;;35.38;21.45;;;16.20;72.60;;;;;;2387688;56;21505;-75
2022/04/14 08:06:18;;;;;;;33.80;20.83;;;16.20;72.70;;;;;;2399273;53;21002;-75
2022/04/14 08:08:45;;;;;;;35.45;23.15;;;16.20;72.40;;;;;;2266841;59;21065;-75
2022/04/14 08:11:12;;;;;;;43.10;22.90;;;16.20;72.40;;;;;;2496889;55;21061;-75
2022/04/14 08:13:41;;;;;;;41.25;25.00;;;16.20;71.50;;;;;;2267225;59;21069;-75
2022/04/14 08:16:09;;;;;;;35.22;23.35;;;16.30;71.90;;;;;;2279746;58;21062;-75
2022/04/14 08:18:37;;;;;;;39.25;23.15;;;16.30;72.20;;;;;;2534063;54;21043;-74
2022/04/14 08:21:05;;;;;;;31.85;21.77;;;16.30;71.80;;;;;;2297222;58;21576;-75
2022/04/14 08:23:38;;;;;;;40.58;24.48;;;16.30;72.20;;;;;;2297308;58;21260;-75
2022/04/14 08:26:08;;;;;;;33.50;22.67;;;16.40;71.60;;;;;;2297281;58;21141;-75
2022/04/14 08:28:40;;;;;;;40.15;22.73;;;16.40;72.10;;;;;;2534201;54;21043;-74
2022/04/14 08:31:08;;;;;;;36.75;23.08;;;16.40;71.30;;;;;;2297570;58;21146;-73
2022/04/14 08:33:37;;;;;;;32.60;22.35;;;16.40;71.80;;;;;;2297789;58;21133;-74
2022/04/14 08:36:07;;;;;;;36.58;21.83;;;16.40;71.80;;;;;;2297080;58;21070;-74
2022/04/14 08:38:35;;;;;;;36.00;22.67;;;16.40;71.10;;;;;;2298089;58;21536;-74
2022/04/14 08:41:07;;;;;;;33.85;21.15;;;16.50;71.20;;;;;;2534246;54;21090;-75
2022/04/14 08:43:36;;;;;;;34.38;18.23;;;16.50;71.30;;;;;;2533965;54;21047;-74
2022/04/14 08:46:06;;;;;;;27.87;18.25;;;16.50;71.00;;;;;;2297345;58;21141;-74
2022/04/14 08:48:35;;;;;;;32.22;19.70;;;16.50;71.10;;;;;;2534360;54;21521;-74
2022/04/14 08:51:04;;;;;;;30.73;19.35;;;16.60;70.50;;;;;;2297815;58;21074;-75
2022/04/14 08:53:35;;;;;;;27.80;18.83;;;16.50;70.60;;;;;;2297880;58;21130;-74
2022/04/14 08:58:40;;;;;;;34.70;24.63;;;16.50;70.90;;;;;;2336294;57;27793;-73
2022/04/14 09:01:08;;;;;;;31.27;20.80;;;16.40;72.70;;;;;;2347514;57;21270;-74
2022/04/14 09:03:35;;;;;;;39.13;21.83;;;16.50;71.60;;;;;;2347689;57;21030;-73
2022/04/14 09:06:02;;;;;;;32.22;18.45;;;16.50;71.00;;;;;;2346485;57;21102;-74
2022/04/14 09:08:30;;;;;;;29.08;18.55;;;16.50;71.20;;;;;;2346341;57;21081;-74
2022/04/14 09:10:57;;;;;;;30.83;18.02;;;16.50;71.20;;;;;;2346105;57;21054;-73
2022/04/14 09:13:24;;;;;;;30.20;17.62;;;16.50;71.00;;;;;;2346113;57;21054;-73
2022/04/14 09:18:28;;;;;;;28.40;16.27;;;16.40;70.50;;;;;;2355633;57;22038;-73
2022/04/14 09:21:04;;;;;;;32.60;17.35;;;16.50;71.20;;;;;;2347481;57;21061;-73
2022/04/14 09:23:31;;;;;;;34.25;18.80;;;16.60;71.20;;;;;;2347515;57;21046;-73
2022/04/14 09:26:11;;;;;;;27.10;16.60;;;16.70;71.30;;;;;;2346491;57;21010;-74
2022/04/14 09:28:39;;;;;;;24.45;16.37;;;16.70;70.20;;;;;;2593223;53;21023;-73
2022/04/14 09:31:08;;;;;;;26.20;15.65;;;16.80;70.20;;;;;;2346170;57;21046;-74
2022/04/14 09:33:37;;;;;;;28.38;16.55;;;16.80;69.60;;;;;;2345346;57;21038;-73
2022/04/14 09:36:09;;;;;;;24.10;16.55;;;16.80;69.20;;;;;;2592408;53;21113;-76
2022/04/14 09:41:29;;;;;;;23.85;14.48;;;16.90;69.10;;;;;;2355261;57;22082;-74
2022/04/14 09:43:58;;;;;;;25.80;14.77;;;16.90;69.00;;;;;;2347361;57;21046;-73
2022/04/14 09:46:25;;;;;;;31.60;15.95;;;17.00;68.10;;;;;;2345567;57;21046;-73
2022/04/14 09:49:06;;;;;;;29.25;16.85;;;17.00;68.00;;;;;;2344984;57;21054;-73
2022/04/14 09:51:35;;;;;;;26.30;14.93;;;17.00;67.90;;;;;;2344801;57;21627;-75
2022/04/14 09:54:12;;;;;;;23.73;15.00;;;17.10;68.40;;;;;;2592614;53;21113;-75
2022/04/14 09:59:24;;;;;;;24.17;14.10;;;17.10;67.30;;;;;;2355321;57;22842;-74
2022/04/14 10:02:09;;;;;;;20.85;14.15;;;17.10;67.30;;;;;;2346577;57;21061;-73
2022/04/14 10:04:38;;;;;;;18.10;12.25;;;17.20;67.40;;;;;;2346774;57;21177;-74
2022/04/14 10:07:08;;;;;;;21.05;14.30;;;17.20;66.30;;;;;;2592489;53;21042;-74
2022/04/14 10:09:38;;;;;;;18.42;12.50;;;17.20;65.70;;;;;;2345407;57;21093;-74
2022/04/14 10:12:30;;;;;;;18.37;11.68;;;17.20;66.20;;;;;;2345126;57;21117;-75
2022/04/14 10:15:02;;;;;;;14.02;8.32;;;17.30;66.80;;;;;;2591823;53;21046;-74
2022/04/14 10:17:32;;;;;;;16.17;9.57;;;17.30;66.40;;;;;;2345501;57;21497;-75
2022/04/14 10:20:00;;;;;;;16.75;10.05;;;17.40;65.80;;;;;;2591949;53;21042;-73
2022/04/14 10:22:27;;;;;;;17.50;10.90;;;17.40;65.40;;;;;;2343763;57;22167;-72
2022/04/14 10:24:56;;;;;;;14.65;9.52;;;17.50;64.40;;;;;;2344891;57;21054;-73
2022/04/14 10:27:25;;;;;;;18.70;10.18;;;17.50;63.20;;;;;;2345523;57;21046;-74
2022/04/14 10:29:52;;;;;;;15.88;10.98;;;17.50;64.60;;;;;;2345657;57;21049;-74
2022/04/14 10:32:21;;;;;;;14.87;9.93;;;17.50;63.90;;;;;;2345254;57;21100;-74
2022/04/14 10:34:49;;;;;;;17.30;10.45;;;17.60;63.60;;;;;;2344901;57;21086;-76
2022/04/14 10:37:22;;;;;;;14.70;10.27;;;17.50;63.80;;;;;;2345268;57;21053;-76
2022/04/14 10:39:50;;;;;;;14.27;9.75;;;17.60;64.00;;;;;;2593647;52;21049;-76
2022/04/14 10:42:22;;;;;;;14.02;9.98;;;17.60;63.30;;;;;;2345618;57;21046;-77
2022/04/14 10:44:50;;;;;;;13.18;9.35;;;17.50;62.20;;;;;;2345322;57;21105;-76
2022/04/14 10:47:53;;;;;;;13.38;8.32;;;17.50;62.80;;;;;;2345533;57;21372;-76
2022/04/14 10:50:22;;;;;;;16.08;10.20;;;17.50;63.70;;;;;;2344263;57;21049;-76
2022/04/14 10:55:46;;;;;;;11.15;8.00;;;17.60;63.30;;;;;;2327972;57;38761;-73
2022/04/14 10:58:54;;;;;;;10.48;6.68;;;17.60;61.10;;;;;;2593676;53;21180;-74
2022/04/14 11:01:57;;;;;;;12.88;8.05;;;17.70;61.60;;;;;;2346124;57;21048;-73
2022/04/14 11:04:30;;;;;;;8.73;6.18;;;17.70;60.50;;;;;;2346938;57;21080;-73
2022/04/14 11:06:59;;;;;;;11.10;7.43;;;17.70;59.40;;;;;;2346022;57;21371;-76
2022/04/14 11:10:12;;;;;;;11.60;8.02;;;17.70;59.30;;;;;;2344825;57;21129;-74
2022/04/14 11:12:56;;;;;;;14.32;8.25;;;17.70;59.20;;;;;;2344917;57;21049;-74
2022/04/14 11:15:31;;;;;;;11.68;7.65;;;17.70;59.60;;;;;;2344871;57;21161;-76
2022/04/14 11:18:07;;;;;;;9.48;7.85;;;17.80;58.80;;;;;;2346064;57;21046;-75
2022/04/14 11:23:52;;;;;;;11.18;7.55;;;17.80;59.60;;;;;;2354995;57;22070;-75
2022/04/14 11:26:35;;;;;;;10.35;7.15;;;17.90;59.70;;;;;;2359170;56;21114;-76
2022/04/14 11:29:04;;;;;;;12.30;7.28;;;17.90;59.70;;;;;;2625753;52;21035;-75
2022/04/14 11:31:33;;;;;;;11.07;7.53;;;18.00;59.40;;;;;;2373256;56;21063;-75
2022/04/14 11:34:03;;;;;;;9.63;6.78;;;18.10;60.50;;;;;;2373362;56;21042;-74
2022/04/14 11:36:44;;;;;;;10.73;7.07;;;18.10;59.90;;;;;;2372343;56;21094;-74
2022/04/14 11:39:22;;;;;;;11.63;5.55;;;18.30;59.70;;;;;;2372726;56;21030;-75
2022/04/14 11:41:51;;;;;;;7.80;5.07;;;18.50;59.20;;;;;;2373061;56;21046;-74
2022/04/14 11:44:20;;;;;;;6.20;4.43;;;18.50;58.80;;;;;;2373847;56;21134;-75
2022/04/14 11:46:49;;;;;;;7.90;5.60;;;18.60;56.90;;;;;;2626889;52;21047;-75
2022/04/14 11:49:19;;;;;;;8.57;6.25;;;18.70;57.00;;;;;;2373376;56;21546;-75
2022/04/14 11:51:48;;;;;;;7.97;6.07;;;18.80;56.70;;;;;;2373041;56;21055;-77
2022/04/14 11:54:21;;;;;;;9.88;5.70;;;18.90;56.30;;;;;;2374600;56;21131;-73
2022/04/14 11:56:53;;;;;;;6.97;4.95;;;19.00;55.70;;;;;;2373438;56;21058;-77
2022/04/14 11:59:28;;;;;;;10.27;5.50;;;19.00;56.00;;;;;;2374390;56;21107;-75
2022/04/14 12:02:00;;;;;;;8.02;5.43;;;19.00;56.20;;;;;;2374416;56;21122;-75
2022/04/14 12:04:27;;;;;;;10.32;5.62;;;19.10;56.00;;;;;;2374369;56;21051;-75
2022/04/14 12:06:56;;;;;;;10.60;6.10;;;19.10;55.80;;;;;;2372682;56;21636;-75
2022/04/14 12:09:24;;;;;;;9.48;5.07;;;19.10;56.10;;;;;;2374537;56;21019;-75
2022/04/14 12:11:52;;;;;;;6.20;4.37;;;19.10;55.40;;;;;;2374770;56;21051;-76
2022/04/14 12:14:20;;;;;;;11.73;4.47;;;19.10;55.20;;;;;;2374504;56;21130;-75
2022/04/14 12:16:49;;;;;;;6.82;4.60;;;19.10;54.60;;;;;;2373445;56;21122;-76
2022/04/14 12:19:16;;;;;;;7.47;4.95;;;19.10;54.40;;;;;;2374930;56;21114;-76
2022/04/14 12:21:58;;;;;;;6.55;3.97;;;19.00;54.30;;;;;;2374436;56;21169;-74
2022/04/14 12:24:25;;;;;;;4.55;2.97;;;19.00;53.50;;;;;;2373584;56;21035;-74
2022/04/14 12:26:52;;;;;;;7.93;3.83;;;19.00;53.10;;;;;;2373348;56;21565;-75
2022/04/14 12:29:21;;;;;;;5.50;3.90;;;19.00;53.30;;;;;;2374474;56;21055;-74
2022/04/14 12:31:48;;;;;;;6.20;4.15;;;19.00;53.30;;;;;;2373334;56;21027;-75
2022/04/14 12:34:16;;;;;;;6.57;4.30;;;18.90;53.50;;;;;;2373660;56;21067;-77
2022/04/14 12:36:43;;;;;;;8.27;5.07;;;18.80;53.70;;;;;;2372985;56;21282;-77
2022/04/14 12:39:19;;;;;;;6.07;3.90;;;18.80;53.70;;;;;;2373669;56;21632;-75
2022/04/14 12:41:47;;;;;;;8.30;4.57;;;18.70;54.10;;;;;;2626334;52;21031;-76
2022/04/14 12:44:20;;;;;;;6.68;3.78;;;18.70;54.20;;;;;;2373521;56;21060;-76
2022/04/14 12:46:50;;;;;;;8.32;4.72;;;18.70;54.60;;;;;;2373175;56;21409;-75
2022/04/14 12:49:20;;;;;;;5.28;3.90;;;18.70;54.50;;;;;;2626735;52;21027;-75
2022/04/14 12:51:54;;;;;;;5.50;4.00;;;18.60;54.80;;;;;;2373896;56;21031;-76
2022/04/14 12:54:23;;;;;;;6.65;3.80;;;18.60;55.10;;;;;;2373659;56;21058;-75
2022/04/14 12:56:59;;;;;;;7.82;4.60;;;18.60;55.00;;;;;;2372571;56;21113;-78
2022/04/14 12:59:28;;;;;;;7.60;4.55;;;18.60;54.30;;;;;;2373316;56;21043;-78